createdAt,value
2023-05-20T00:01:52.709Z,2.60
2023-05-20T00:04:47.854Z,2.70
2023-05-20T00:07:19.177Z,2.75
2023-05-20T00:09:49.533Z,2.50
2023-05-20T00:12:27.030Z,2.60
2023-05-20T01:17:27.847Z,2.30
2023-05-20T01:24:35.449Z,2.90
2023-05-20T02:09:25.905Z,2.85
2023-05-20T02:21:28.582Z,3.10
2023-05-20T02:24:35.491Z,2.58
2023-05-20T02:27:00.085Z,3.15
2023-05-20T02:29:28.974Z,2.95
2023-05-20T02:31:57.555Z,2.70
2023-05-20T02:34:32.708Z,3.05
2023-05-20T02:37:29.868Z,2.88
2023-05-20T02:42:57.477Z,2.42
2023-05-20T02:45:31.493Z,3.10
2023-05-20T02:54:30.213Z,2.72
2023-05-20T03:00:06.235Z,2.60
2023-05-20T03:05:28.968Z,2.70
2023-05-20T03:08:38.602Z,2.92
2023-05-20T03:11:07.988Z,3.10
2023-05-20T03:13:37.122Z,2.90
2023-05-20T03:16:30.192Z,3.20
2023-05-20T03:20:01.847Z,3.38
2023-05-20T03:27:00.065Z,2.88
2023-05-20T03:29:32.240Z,2.90
2023-05-20T03:32:06.355Z,3.63
2023-05-20T03:35:30.027Z,3.00
2023-05-20T03:43:32.076Z,3.17
2023-05-20T03:55:02.503Z,3.35
2023-05-20T03:57:33.151Z,3.58
2023-05-20T04:00:03.129Z,3.00
2023-05-20T04:02:32.698Z,3.50
2023-05-20T04:05:02.453Z,3.83
2023-05-20T04:07:33.623Z,3.47
2023-05-20T04:10:01.948Z,3.92
2023-05-20T04:15:12.271Z,3.20
2023-05-20T04:18:04.264Z,2.90
2023-05-20T04:20:33.154Z,3.00
2023-05-20T04:23:04.452Z,2.92
2023-05-20T04:28:04.081Z,2.90
2023-05-20T04:33:05.953Z,3.67
2023-05-20T04:35:36.116Z,3.95
2023-05-20T04:42:05.729Z,3.40
2023-05-20T04:44:37.109Z,2.88
2023-05-20T04:47:05.560Z,3.15
2023-05-20T04:49:36.092Z,3.30
2023-05-20T04:52:05.651Z,3.90
2023-05-20T04:57:47.524Z,2.72
2023-05-20T05:00:26.630Z,3.35
2023-05-20T05:03:05.057Z,3.05
2023-05-20T05:06:03.860Z,3.55
2023-05-20T05:08:35.082Z,3.53
2023-05-20T05:13:42.091Z,2.92
2023-05-20T05:16:10.470Z,3.67
2023-05-20T05:30:38.387Z,2.72
2023-05-20T05:33:07.273Z,3.58
2023-05-20T05:35:46.298Z,3.60
2023-05-20T05:38:15.399Z,3.38
2023-05-20T05:44:05.802Z,3.38
2023-05-20T05:51:08.082Z,4.20
2023-05-20T05:57:06.702Z,3.72
2023-05-20T06:00:06.014Z,3.05
2023-05-20T06:03:06.459Z,2.78
2023-05-20T06:06:06.400Z,2.70
2023-05-20T06:09:08.410Z,3.08
2023-05-20T06:12:07.458Z,3.10
2023-05-20T06:14:38.528Z,4.22
2023-05-20T06:17:08.175Z,3.70
2023-05-20T06:20:06.820Z,3.28
2023-05-20T06:22:38.323Z,3.75
2023-05-20T06:25:08.681Z,2.70
2023-05-20T06:34:38.927Z,3.38
2023-05-20T06:37:08.650Z,3.47
2023-05-20T06:39:37.134Z,3.47
2023-05-20T06:42:09.122Z,3.75
2023-05-20T06:47:12.665Z,3.70
2023-05-20T06:50:08.687Z,3.30
2023-05-20T06:52:42.274Z,3.03
2023-05-20T06:55:13.710Z,3.25
2023-05-20T06:58:12.835Z,2.83
2023-05-20T07:03:12.568Z,3.80
2023-05-20T07:06:09.740Z,3.20
2023-05-20T07:15:08.840Z,2.80
2023-05-20T07:18:09.367Z,3.08
2023-05-20T07:20:40.851Z,2.92
2023-05-20T07:23:09.376Z,2.92
2023-05-20T07:26:09.871Z,2.90
2023-05-20T07:31:13.469Z,2.80
2023-05-20T07:34:12.371Z,2.85
2023-05-20T07:36:40.890Z,2.90
2023-05-20T07:39:14.378Z,2.53
2023-05-20T07:42:12.023Z,2.35
2023-05-20T07:45:12.317Z,2.47
2023-05-20T07:51:10.025Z,2.53
2023-05-20T07:56:12.594Z,2.67
2023-05-20T08:02:10.827Z,3.30
2023-05-20T08:04:42.047Z,2.97
2023-05-20T08:07:13.573Z,2.40
2023-05-20T08:09:42.073Z,2.92
2023-05-20T08:12:10.366Z,3.17
2023-05-20T08:15:13.076Z,3.20
2023-05-20T08:17:41.757Z,3.30
2023-05-20T08:20:13.586Z,2.95
2023-05-20T08:22:42.155Z,2.95
2023-05-20T08:25:14.036Z,2.45
2023-05-20T08:27:42.827Z,3.03
2023-05-20T08:30:12.394Z,2.50
2023-05-20T08:32:43.765Z,2.60
2023-05-20T08:37:43.652Z,2.90
2023-05-20T08:40:13.850Z,2.47
2023-05-20T08:42:45.730Z,3.08
2023-05-20T08:45:17.209Z,3.08
2023-05-20T08:47:47.033Z,3.05
2023-05-20T08:50:16.171Z,2.97
2023-05-20T08:52:48.259Z,2.78
2023-05-20T08:55:42.188Z,2.47
2023-05-20T08:58:16.406Z,2.78
2023-05-20T09:00:44.742Z,2.38
2023-05-20T09:03:13.348Z,2.38
2023-05-20T09:05:44.447Z,2.28
2023-05-20T09:08:13.422Z,2.60
2023-05-20T09:10:44.938Z,2.72
2023-05-20T09:13:13.456Z,2.22
2023-05-20T09:15:44.761Z,2.67
2023-05-20T09:20:47.596Z,2.30
2023-05-20T09:23:15.955Z,2.40
2023-05-20T09:25:44.287Z,2.63
2023-05-20T09:28:12.876Z,3.10
2023-05-20T09:30:46.015Z,2.60
2023-05-20T09:33:14.820Z,2.47
2023-05-20T09:35:43.572Z,2.65
2023-05-20T09:38:16.894Z,2.80
2023-05-20T09:40:47.484Z,2.85
2023-05-20T09:43:16.291Z,2.67
2023-05-20T09:45:44.896Z,3.38
2023-05-20T09:48:16.226Z,2.60
2023-05-20T09:53:16.962Z,2.00
2023-05-20T09:55:46.431Z,1.70
2023-05-20T09:58:16.446Z,1.75
2023-05-20T10:00:44.819Z,1.92
2023-05-20T10:03:14.881Z,1.30
2023-05-20T10:05:58.004Z,1.65
2023-05-20T10:08:57.015Z,1.35
2023-05-20T10:12:02.279Z,1.40
2023-05-20T10:14:50.464Z,1.88
2023-05-20T10:17:44.779Z,1.80
2023-05-20T10:20:16.980Z,1.88
2023-05-20T10:22:46.399Z,2.20
2023-05-20T10:28:45.867Z,3.13
2023-05-20T10:31:26.606Z,2.33
2023-05-20T10:33:56.940Z,2.23
2023-05-20T10:36:35.472Z,2.53
2023-05-20T10:39:46.930Z,2.33
2023-05-20T10:42:18.521Z,1.95
2023-05-20T10:44:48.480Z,2.10
2023-05-20T10:47:25.331Z,2.10
2023-05-20T10:49:54.044Z,2.35
2023-05-20T10:52:25.736Z,2.28
2023-05-20T10:55:24.255Z,2.00
2023-05-20T10:58:06.555Z,3.13
2023-05-20T11:01:16.416Z,2.90
2023-05-20T11:03:51.618Z,2.58
2023-05-20T11:06:20.189Z,2.08
2023-05-20T11:09:17.582Z,2.30
2023-05-20T11:11:49.113Z,1.98
2023-05-20T11:14:19.101Z,2.58
2023-05-20T11:16:49.444Z,2.08
2023-05-20T11:19:17.997Z,2.38
2023-05-20T11:22:22.001Z,2.03
2023-05-20T11:28:17.302Z,2.50
2023-05-20T11:31:16.239Z,2.13
2023-05-20T11:33:50.254Z,1.88
2023-05-20T11:36:27.412Z,2.22
2023-05-20T11:39:02.035Z,2.10
2023-05-20T11:44:47.305Z,2.40
2023-05-20T11:47:17.737Z,2.15
2023-05-20T11:50:18.126Z,2.08
2023-05-20T11:53:20.240Z,2.38
2023-05-20T11:55:56.136Z,1.48
2023-05-20T11:58:27.167Z,2.20
2023-05-20T12:01:05.188Z,2.38
2023-05-20T12:04:18.730Z,2.08
2023-05-20T12:06:50.199Z,2.03
2023-05-20T12:09:18.617Z,1.75
2023-05-20T12:15:17.815Z,2.10
2023-05-20T12:17:51.630Z,2.45
2023-05-20T12:20:24.490Z,1.98
2023-05-20T12:23:18.051Z,2.60
2023-05-20T12:25:48.096Z,2.10
2023-05-20T12:28:19.828Z,1.80
2023-05-20T12:30:48.067Z,2.42
2023-05-20T12:33:17.282Z,2.83
2023-05-20T12:35:48.743Z,2.20
2023-05-20T12:38:49.272Z,2.45
2023-05-20T12:41:20.568Z,2.20
2023-05-20T12:49:21.842Z,2.30
2023-05-20T12:51:50.472Z,1.98
2023-05-20T12:54:19.522Z,1.90
2023-05-20T12:56:49.244Z,2.42
2023-05-20T12:59:20.582Z,1.83
2023-05-20T13:04:21.174Z,2.75
2023-05-20T13:06:49.567Z,2.08
2023-05-20T13:09:20.782Z,2.17
2023-05-20T13:11:49.045Z,2.17
2023-05-20T13:14:20.533Z,2.70
2023-05-20T13:16:50.510Z,3.05
2023-05-20T13:19:18.801Z,2.10
2023-05-20T13:21:53.105Z,3.30
2023-05-20T13:24:21.839Z,1.70
2023-05-20T13:26:50.107Z,2.30
2023-05-20T13:29:22.378Z,2.20
2023-05-20T13:32:28.577Z,2.30
2023-05-20T13:34:49.497Z,1.88
2023-05-20T13:37:20.621Z,2.50
2023-05-20T13:39:50.557Z,1.92
2023-05-20T13:42:23.413Z,2.78
2023-05-20T13:50:20.950Z,2.10
2023-05-20T13:52:52.559Z,2.60
2023-05-20T13:55:21.808Z,2.42
2023-05-20T13:57:51.092Z,2.85
2023-05-20T14:02:50.307Z,2.65
2023-05-20T14:05:19.722Z,2.63
2023-05-20T14:07:48.175Z,2.88
2023-05-20T14:10:19.688Z,2.22
2023-05-20T14:12:49.082Z,2.72
2023-05-20T14:15:17.464Z,2.47
2023-05-20T14:17:52.447Z,2.58
2023-05-20T14:20:27.220Z,2.72
2023-05-20T14:23:18.443Z,2.08
2023-05-20T14:25:50.673Z,2.22
2023-05-20T14:28:21.300Z,2.75
2023-05-20T14:30:49.599Z,2.40
2023-05-20T14:33:20.329Z,2.20
2023-05-20T14:35:52.102Z,2.63
2023-05-20T14:38:23.565Z,2.30
2023-05-20T14:40:52.106Z,2.33
2023-05-20T14:43:22.339Z,2.92
2023-05-20T14:45:50.645Z,1.95
2023-05-20T14:48:21.668Z,2.13
2023-05-20T14:50:53.039Z,1.60
2023-05-20T14:55:49.616Z,2.30
2023-05-20T14:58:21.028Z,1.80
2023-05-20T15:03:20.148Z,1.95
2023-05-20T15:05:51.701Z,1.85
2023-05-20T15:08:20.271Z,2.40
2023-05-20T15:10:51.613Z,2.42
2023-05-20T15:15:52.901Z,2.05
2023-05-20T15:18:21.552Z,2.10
2023-05-20T15:20:53.457Z,1.88
2023-05-20T15:23:22.416Z,2.00
2023-05-20T15:25:53.672Z,1.63
2023-05-20T15:28:22.201Z,2.20
2023-05-20T15:30:55.490Z,2.08
2023-05-20T15:33:24.232Z,2.00
2023-05-20T15:35:52.757Z,1.60
2023-05-20T15:38:24.933Z,2.10
2023-05-20T15:40:53.302Z,2.40
2023-05-20T15:43:23.227Z,2.30
2023-05-20T15:45:55.613Z,2.33
2023-05-20T15:48:27.501Z,1.50
2023-05-20T15:59:51.909Z,2.45
2023-05-20T16:02:51.845Z,2.25
2023-05-20T16:05:52.645Z,1.77
2023-05-20T16:08:59.461Z,1.97
2023-05-20T16:11:30.000Z,1.80
2023-05-20T16:14:01.339Z,1.60
2023-05-20T16:21:00.843Z,1.33
2023-05-20T16:39:54.840Z,1.40
2023-05-20T16:53:10.269Z,1.58
2023-05-20T16:53:53.748Z,1.40
2023-05-20T16:59:17.755Z,1.20
2023-05-20T17:01:54.720Z,1.20
2023-05-20T17:04:23.493Z,0.88
2023-05-20T17:06:57.729Z,0.80
2023-05-20T17:09:26.102Z,0.90
2023-05-20T17:11:55.436Z,0.90
2023-05-20T17:14:34.667Z,1.17
2023-05-20T17:17:02.995Z,1.25
2023-05-20T17:19:59.076Z,1.05
2023-05-20T17:22:30.430Z,1.00
2023-05-20T17:24:59.533Z,1.00
2023-05-20T17:28:00.688Z,0.70
2023-05-20T17:33:09.713Z,0.43
2023-05-20T17:35:43.990Z,0.63
2023-05-20T17:41:29.577Z,0.57
2023-05-20T17:43:58.031Z,0.50
2023-05-20T17:46:26.629Z,0.50
2023-05-20T17:48:58.221Z,0.60
2023-05-20T17:54:01.917Z,0.70
2023-05-20T17:56:30.482Z,0.40
2023-05-20T18:01:30.424Z,0.70
2023-05-20T18:04:05.300Z,0.50
2023-05-20T18:06:38.501Z,0.50
2023-05-20T18:09:07.257Z,0.73
2023-05-20T18:12:03.592Z,0.90
2023-05-20T18:19:58.987Z,0.80
2023-05-20T18:22:30.697Z,0.70
2023-05-20T18:25:01.589Z,0.25
2023-05-20T18:27:30.247Z,1.13
2023-05-20T18:30:01.611Z,0.50
2023-05-20T18:33:06.232Z,0.60
2023-05-20T18:39:36.248Z,0.60
2023-05-20T18:42:11.167Z,0.93
2023-05-20T18:45:14.879Z,0.52
2023-05-20T19:21:59.281Z,0.82
2023-05-20T20:30:08.511Z,1.48
2023-05-20T20:33:12.713Z,1.10
2023-05-20T20:36:07.809Z,1.70
2023-05-20T20:44:24.487Z,1.10
2023-05-20T20:48:10.487Z,0.50
2023-05-20T20:56:10.879Z,0.60
2023-05-20T20:59:10.155Z,1.40
2023-05-20T21:04:38.079Z,1.10
2023-05-20T21:07:09.626Z,1.00
2023-05-20T21:09:38.604Z,1.70
2023-05-20T21:12:10.480Z,1.20
2023-05-20T21:14:39.091Z,1.40
2023-05-20T21:17:12.179Z,1.15
2023-05-20T21:22:40.229Z,1.17
2023-05-20T21:25:12.203Z,1.13
2023-05-20T21:28:08.876Z,1.10
2023-05-20T21:30:40.038Z,1.20
2023-05-20T21:33:10.102Z,1.65
2023-05-20T21:35:44.673Z,1.23
2023-05-20T21:38:15.586Z,1.35
2023-05-20T21:44:17.388Z,0.90
2023-05-20T21:46:46.015Z,1.50
2023-05-20T21:49:14.632Z,1.33
2023-05-20T21:52:13.109Z,1.50
2023-05-20T21:55:12.037Z,1.73
2023-05-20T21:57:49.336Z,1.20
2023-05-20T22:00:19.871Z,1.13
2023-05-20T22:03:14.050Z,1.20
2023-05-20T22:06:10.965Z,1.02
2023-05-20T22:11:16.607Z,1.20
2023-05-20T22:17:13.239Z,1.00
2023-05-20T22:19:44.978Z,1.27
2023-05-20T22:22:13.852Z,1.20
2023-05-20T22:28:11.990Z,1.50
2023-05-20T22:33:15.118Z,1.30
2023-05-20T22:42:13.066Z,1.40
2023-05-20T22:50:17.345Z,1.42
2023-05-20T22:52:45.848Z,1.38
2023-05-20T22:55:24.128Z,1.50
2023-05-20T22:58:18.488Z,1.55
2023-05-20T23:01:14.117Z,1.50
2023-05-20T23:03:48.725Z,1.33
2023-05-20T23:06:17.892Z,1.50
2023-05-20T23:15:00.938Z,1.45
2023-05-20T23:21:14.922Z,1.65
2023-05-20T23:29:43.645Z,1.50
2023-05-20T23:32:18.176Z,1.50
2023-05-20T23:35:19.424Z,1.65
2023-05-20T23:41:16.937Z,1.30
2023-05-20T23:44:17.989Z,1.50
2023-05-20T23:50:18.412Z,1.55
2023-05-20T23:53:18.731Z,1.58
2023-05-20T23:56:21.227Z,1.50
